Time;durP1;ratioP1;P1;durP2;ratioP2;P2;SDS_P1;SDS_P2;PMS_P1;PMS_P2;Temp;Humidity;BMP_temperature;BMP_pressure;BME280_temperature;BME280_humidity;BME280_pressure;Samples;Min_cycle;Max_cycle;Signal;HPM_P1;HPM_P2
2021/08/30 00:01:15;;;;;;;;;7.00;7.00;;;;;18.44;63.24;98002.03;6187747;22;103404;-82
2021/08/30 00:03:43;;;;;;;;;9.33;7.33;;;;;18.44;62.63;98015.72;6106364;22;102093;-84
2021/08/30 00:06:11;;;;;;;;;8.33;7.00;;;;;18.44;62.83;98001.22;6191826;22;102276;-84
2021/08/30 00:08:38;;;;;;;;;8.67;8.67;;;;;18.44;63.07;97999.31;6187246;22;102125;-84
2021/08/30 00:11:09;;;;;;;;;9.00;9.00;;;;;18.43;63.23;97997.66;6211587;22;104027;-84
2021/08/30 00:13:42;;;;;;;;;8.67;8.67;;;;;18.41;63.55;97994.38;6210852;22;102086;-84
2021/08/30 00:16:15;;;;;;;;;8.00;8.00;;;;;18.43;63.11;97997.66;6213308;22;102015;-84
2021/08/30 00:18:48;;;;;;;;;7.67;7.33;;;;;18.41;63.12;98002.59;6205996;22;102104;-84
2021/08/30 00:21:20;;;;;;;;;9.00;9.00;;;;;18.40;63.57;97997.38;6214105;22;104076;-84
2021/08/30 00:23:54;;;;;;;;;9.00;9.00;;;;;18.39;62.60;97991.06;6198792;22;102518;-84
2021/08/30 00:26:27;;;;;;;;;6.00;4.00;;;;;18.41;62.79;97994.38;6209520;22;101903;-84
2021/08/30 00:28:59;;;;;;;;;8.00;7.33;;;;;18.40;63.12;97994.63;6204194;22;102540;-84
2021/08/30 00:31:33;;;;;;;;;9.00;8.67;;;;;18.41;62.44;97999.84;6201733;22;103016;-84
2021/08/30 00:34:02;;;;;;;;;12.00;9.00;;;;;18.40;63.05;97997.38;6202562;22;102398;-84
2021/08/30 00:36:35;;;;;;;;;8.00;8.00;;;;;18.39;62.21;98002.00;6169797;22;102487;-84
2021/08/30 00:39:08;;;;;;;;;10.00;9.00;;;;;18.39;62.78;98002.00;6203564;22;102447;-84
2021/08/30 00:41:42;;;;;;;;;11.00;7.33;;;;;18.39;63.57;97991.06;6204540;22;108562;-84
2021/08/30 00:44:22;;;;;;;;;9.67;9.00;;;;;18.36;62.94;97999.81;6192238;22;102512;-84
2021/08/30 00:46:51;;;;;;;;;12.00;11.67;;;;;18.37;62.57;98000.66;6092613;22;102515;-84
2021/08/30 00:49:19;;;;;;;;;9.33;8.67;;;;;18.36;62.94;97994.34;6195234;22;103071;-84
2021/08/30 00:51:46;;;;;;;;;9.67;9.33;;;;;18.36;62.96;98004.47;6192599;22;104383;-84
2021/08/30 00:54:14;;;;;;;;;6.33;5.00;;;;;18.36;63.43;98001.72;6197186;22;102220;-84
2021/08/30 00:56:41;;;;;;;;;9.67;8.67;;;;;18.35;62.35;97995.41;6191227;22;104149;-84
2021/08/30 00:59:09;;;;;;;;;8.33;8.00;;;;;18.35;62.69;98000.91;6200105;22;102707;-84
2021/08/30 01:01:36;;;;;;;;;10.33;9.33;;;;;18.36;63.19;97997.06;6166176;22;104207;-84
2021/08/30 01:04:08;;;;;;;;;8.00;7.67;;;;;18.36;62.66;97999.81;6149723;22;102058;-84
2021/08/30 01:06:47;;;;;;;;;8.67;8.67;;;;;18.35;62.27;98005.53;6179279;22;102325;-84
2021/08/30 01:09:33;;;;;;;;;12.00;11.00;;;;;18.35;63.04;98000.91;6154476;22;102407;-85
2021/08/30 01:12:12;;;;;;;;;3.00;2.67;;;;;18.31;62.68;97998.97;6053141;22;108801;-84
2021/08/30 01:14:51;;;;;;;;;8.00;6.67;;;;;18.33;62.58;97996.78;6114631;22;102790;-85
2021/08/30 01:17:22;;;;;;;;;9.33;9.00;;;;;18.31;63.07;97998.97;6190931;22;102156;-85
2021/08/30 01:20:15;;;;;;;;;11.00;8.33;;;;;18.31;63.33;97991.56;6163232;22;102688;-84
2021/08/30 01:22:58;;;;;;;;;12.33;9.00;;;;;18.29;63.43;97994.56;6068015;22;107612;-84
2021/08/30 01:25:29;;;;;;;;;8.00;7.67;;;;;18.28;63.06;97994.84;6185872;22;109864;-84
2021/08/30 01:28:07;;;;;;;;;8.00;8.00;;;;;18.28;62.32;97997.59;6126112;22;102138;-84
2021/08/30 01:30:41;;;;;;;;;11.33;8.67;;;;;18.28;62.82;97986.63;6162600;22;102248;-84
2021/08/30 01:33:15;;;;;;;;;9.33;7.67;;;;;18.27;62.39;97995.94;6201536;22;103965;-84
2021/08/30 01:35:54;;;;;;;;;6.67;6.33;;;;;18.29;62.79;97996.47;6181806;22;102355;-84
2021/08/30 01:38:30;;;;;;;;;8.00;7.33;;;;;18.28;62.43;97997.59;6181606;22;102061;-84
2021/08/30 01:41:04;;;;;;;;;11.00;9.00;;;;;18.26;63.10;97994.28;6174833;22;109263;-84
2021/08/30 01:43:39;;;;;;;;;8.33;8.33;;;;;18.25;62.66;97989.88;6152646;22;103738;-84
2021/08/30 01:46:18;;;;;;;;;9.00;7.00;;;;;18.24;62.82;97985.50;6159804;22;102764;-84
2021/08/30 01:48:51;;;;;;;;;9.67;8.67;;;;;18.26;62.24;97988.81;6159408;22;102523;-83
2021/08/30 01:51:27;;;;;;;;;7.00;7.00;;;;;18.24;62.78;97982.75;6161598;22;102205;-84
2021/08/30 01:53:59;;;;;;;;;11.00;10.00;;;;;18.23;62.90;97987.44;6150496;22;108556;-84
2021/08/30 01:56:28;;;;;;;;;9.00;9.00;;;;;18.23;63.27;97990.16;6153087;22;102431;-84
2021/08/30 02:01:41;;;;;;;;;10.00;8.00;;;;;18.23;62.71;98000.28;6081399;22;105096;-84
2021/08/30 02:04:08;;;;;;;;;7.00;6.33;;;;;18.24;62.41;97988.22;6140727;22;104256;-84
2021/08/30 02:06:35;;;;;;;;;7.67;6.67;;;;;18.24;62.42;97989.06;6181076;22;102232;-84
2021/08/30 02:09:04;;;;;;;;;6.00;5.33;;;;;18.25;62.55;97987.97;6168173;22;102190;-83
2021/08/30 02:11:35;;;;;;;;;7.67;6.33;;;;;18.24;62.77;97988.22;6194488;22;102433;-85
2021/08/30 02:14:03;;;;;;;;;8.33;8.00;;;;;18.23;63.05;97992.09;6168322;22;108682;-82
2021/08/30 02:16:31;;;;;;;;;8.67;8.67;;;;;18.21;62.69;97983.31;6180366;22;102642;-85
2021/08/30 02:19:10;;;;;;;;;6.00;5.00;;;;;18.21;62.52;97988.78;6198330;22;104056;-84
2021/08/30 02:21:41;;;;;;;;;8.33;7.67;;;;;18.22;62.86;97983.03;6127641;22;102531;-84
2021/08/30 02:24:38;;;;;;;;;8.33;8.33;;;;;18.20;62.76;97985.22;6156782;22;107432;-84
2021/08/30 02:27:26;;;;;;;;;8.00;8.00;;;;;18.20;62.45;97989.84;6142804;22;102288;-83
2021/08/30 02:30:01;;;;;;;;;8.00;8.00;;;;;18.19;62.73;97986.28;6165291;22;102446;-84
2021/08/30 02:32:30;;;;;;;;;8.67;8.67;;;;;18.18;63.17;97978.38;6201333;22;102301;-84
2021/08/30 02:34:57;;;;;;;;;10.67;9.67;;;;;18.17;62.50;97982.19;6166404;22;104005;-84
2021/08/30 02:37:25;;;;;;;;;8.33;7.33;;;;;18.19;63.27;97990.97;6178066;22;102510;-84
2021/08/30 02:39:52;;;;;;;;;6.00;6.00;;;;;18.16;63.00;97992.31;6173202;22;102603;-84
2021/08/30 02:42:19;;;;;;;;;8.33;8.33;;;;;18.20;62.13;97982.47;6174308;22;102258;-84
2021/08/30 02:44:46;;;;;;;;;6.33;6.00;;;;;18.20;62.51;97989.84;6175504;22;104539;-84
2021/08/30 02:47:14;;;;;;;;;8.00;8.00;;;;;18.18;63.56;97989.31;6202499;22;110856;-84
2021/08/30 02:49:41;;;;;;;;;8.67;8.67;;;;;18.18;62.21;97981.09;6139376;22;102757;-84
2021/08/30 02:52:13;;;;;;;;;6.00;6.00;;;;;18.18;62.18;97992.03;6176538;22;102542;-84
2021/08/30 02:54:41;;;;;;;;;7.00;7.00;;;;;18.16;62.10;97986.00;6191607;22;104346;-84
2021/08/30 02:57:08;;;;;;;;;7.00;7.00;;;;;18.16;62.62;97986.00;6177658;22;102076;-84
2021/08/30 02:59:36;;;;;;;;;9.67;8.00;;;;;18.16;62.25;97994.22;6168111;22;102256;-83
2021/08/30 03:02:03;;;;;;;;;8.00;6.33;;;;;18.16;62.47;97991.47;6194720;22;102137;-84
2021/08/30 03:04:31;;;;;;;;;8.67;7.00;;;;;18.15;63.29;97992.56;6159089;22;108455;-85
2021/08/30 03:06:58;;;;;;;;;11.33;8.67;;;;;18.16;62.27;97991.47;6152723;22;102532;-84
2021/08/30 03:09:25;;;;;;;;;5.00;5.00;;;;;18.15;62.42;97984.34;6186153;22;102480;-84
2021/08/30 03:11:53;;;;;;;;;7.33;6.33;;;;;18.17;62.34;97988.47;6185324;22;102636;-84
2021/08/30 03:14:23;;;;;;;;;7.00;7.00;;;;;18.17;62.36;97993.13;6187820;22;103734;-84
2021/08/30 03:16:52;;;;;;;;;5.67;5.00;;;;;18.16;62.46;97995.03;6145772;22;102749;-84
2021/08/30 03:19:19;;;;;;;;;7.67;6.33;;;;;18.15;62.38;97987.91;6176829;22;102402;-84
2021/08/30 03:21:46;;;;;;;;;8.00;6.67;;;;;18.16;62.89;97996.94;6202320;22;102456;-84
2021/08/30 03:24:13;;;;;;;;;7.67;7.00;;;;;18.16;63.06;97986.00;6148718;22;104037;-84
2021/08/30 03:26:40;;;;;;;;;8.00;7.00;;;;;18.14;62.29;97982.72;6175804;22;102436;-84
2021/08/30 03:29:07;;;;;;;;;8.00;8.00;;;;;18.15;61.82;97978.88;6175905;22;102345;-83
2021/08/30 03:31:35;;;;;;;;;8.00;8.00;;;;;18.15;62.28;97978.88;6157256;22;105721;-82
2021/08/30 03:34:02;;;;;;;;;8.00;8.00;;;;;18.10;62.93;97974.19;6176736;22;104039;-84
2021/08/30 03:36:29;;;;;;;;;6.33;6.00;;;;;18.12;63.16;97982.16;6149777;22;102327;-84
2021/08/30 03:38:57;;;;;;;;;9.67;8.67;;;;;18.14;62.75;97988.19;6194941;22;102506;-84
2021/08/30 03:41:25;;;;;;;;;2.67;2.67;;;;;18.13;61.94;97992.00;6169012;22;102498;-84
2021/08/30 03:43:53;;;;;;;;;6.33;6.33;;;;;18.13;62.14;97994.75;6188861;22;104164;-83
2021/08/30 03:46:21;;;;;;;;;6.33;6.00;;;;;18.12;61.79;97996.66;6194824;22;102334;-84
2021/08/30 03:48:48;;;;;;;;;8.00;7.67;;;;;18.14;61.92;97993.66;6164677;22;101954;-84
2021/08/30 03:51:15;;;;;;;;;8.67;7.00;;;;;18.13;62.28;97983.81;6202073;22;105382;-83
2021/08/30 03:53:44;;;;;;;;;6.00;6.00;;;;;18.11;62.12;97992.25;6176928;22;103170;-83
2021/08/30 03:56:11;;;;;;;;;7.67;7.00;;;;;18.12;62.51;97993.09;6175049;22;102392;-84
2021/08/30 03:58:39;;;;;;;;;5.33;5.33;;;;;18.11;61.77;97986.78;6173563;22;102935;-84
2021/08/30 04:01:07;;;;;;;;;7.00;6.00;;;;;18.11;61.80;97980.50;6163859;22;109277;-83
2021/08/30 04:03:35;;;;;;;;;9.00;7.67;;;;;18.10;61.81;97984.34;6181144;22;104035;-84
2021/08/30 04:06:04;;;;;;;;;7.67;7.00;;;;;18.07;62.13;97979.38;6198291;22;102117;-84
2021/08/30 04:08:31;;;;;;;;;6.00;6.00;;;;;18.06;62.48;97984.03;6202701;22;105305;-84
2021/08/30 04:10:59;;;;;;;;;7.67;7.00;;;;;18.06;62.39;97984.03;6194204;22;102595;-84
2021/08/30 04:13:27;;;;;;;;;7.00;5.67;;;;;18.07;61.81;97990.31;6171136;22;104545;-83
2021/08/30 04:15:54;;;;;;;;;6.00;5.67;;;;;18.07;61.70;97988.41;6167432;22;101954;-84
2021/08/30 04:18:21;;;;;;;;;7.67;7.00;;;;;18.08;61.89;97989.25;6188510;22;104974;-84
2021/08/30 04:20:49;;;;;;;;;7.00;6.00;;;;;18.08;62.11;97983.78;6189890;22;102579;-84
2021/08/30 04:23:16;;;;;;;;;7.00;7.00;;;;;18.06;62.12;97983.19;6194886;22;104099;-84
2021/08/30 04:25:43;;;;;;;;;5.00;5.00;;;;;18.07;62.13;97987.59;6188884;22;102563;-84
2021/08/30 04:28:10;;;;;;;;;6.00;6.00;;;;;18.05;62.29;97985.13;6196950;22;103087;-83
2021/08/30 04:30:38;;;;;;;;;7.00;7.00;;;;;18.04;62.08;97983.47;6184738;22;102148;-85
2021/08/30 04:33:12;;;;;;;;;8.00;7.00;;;;;18.01;62.12;97980.44;6191990;22;108853;-84
2021/08/30 04:35:40;;;;;;;;;7.33;6.00;;;;;18.04;62.60;97994.41;6181237;22;102451;-83
2021/08/30 04:38:07;;;;;;;;;8.67;7.00;;;;;18.04;62.26;97990.84;6185399;22;102477;-84
2021/08/30 04:40:37;;;;;;;;;6.67;6.67;;;;;18.04;62.31;97999.06;6190160;22;102331;-84
2021/08/30 04:43:08;;;;;;;;;10.00;6.00;;;;;18.05;62.08;97995.25;6193271;22;110166;-84
2021/08/30 04:45:37;;;;;;;;;7.00;6.00;;;;;18.06;62.28;97994.13;6191938;22;101907;-84
2021/08/30 04:48:05;;;;;;;;;8.00;7.00;;;;;18.06;62.04;97994.13;6199062;22;103339;-84
2021/08/30 04:50:32;;;;;;;;;7.00;7.00;;;;;18.05;62.19;97998.81;6180256;22;102137;-84
2021/08/30 04:53:00;;;;;;;;;4.67;4.67;;;;;18.06;62.18;97999.63;6204573;22;104022;-84
2021/08/30 04:55:27;;;;;;;;;6.33;6.33;;;;;18.05;61.75;98001.56;6198913;22;102176;-84
2021/08/30 04:57:54;;;;;;;;;8.00;7.00;;;;;18.04;61.39;98005.38;6208337;22;102710;-85
2021/08/30 05:00:21;;;;;;;;;7.67;6.33;;;;;18.03;61.52;97994.69;6203535;22;102518;-84
2021/08/30 05:02:48;;;;;;;;;9.00;7.00;;;;;18.01;61.70;98000.41;6206070;22;104173;-84
2021/08/30 05:05:16;;;;;;;;;6.00;6.00;;;;;18.01;61.95;98010.56;6199257;22;102841;-84
2021/08/30 05:07:45;;;;;;;;;7.00;7.00;;;;;18.01;61.75;98005.88;6201769;22;102529;-84
2021/08/30 05:10:13;;;;;;;;;6.00;6.00;;;;;18.01;62.09;98010.56;6186939;22;102451;-84
2021/08/30 05:12:41;;;;;;;;;7.33;7.33;;;;;17.99;62.36;98013.53;6185618;22;103877;-84
2021/08/30 05:15:08;;;;;;;;;7.00;7.00;;;;;18.01;62.65;98007.81;6185048;22;102912;-85
2021/08/30 05:17:36;;;;;;;;;6.00;6.00;;;;;18.02;61.79;98018.47;6185174;22;102468;-85
2021/08/30 05:20:04;;;;;;;;;7.00;7.00;;;;;18.03;61.68;98011.09;6185872;22;102620;-85
2021/08/30 05:22:31;;;;;;;;;7.00;5.33;;;;;18.00;62.03;98003.41;6194004;22;104273;-85
2021/08/30 05:25:01;;;;;;;;;8.67;7.00;;;;;18.01;61.91;98013.28;6202956;22;102107;-85
2021/08/30 05:27:28;;;;;;;;;6.67;6.00;;;;;18.00;61.93;98014.38;6204127;22;102312;-85
2021/08/30 05:29:58;;;;;;;;;8.00;6.00;;;;;18.01;62.04;98008.59;6198180;22;102335;-85
2021/08/30 05:32:25;;;;;;;;;7.00;6.33;;;;;18.00;61.65;98011.63;6204145;22;104146;-84
2021/08/30 05:34:52;;;;;;;;;7.00;6.33;;;;;17.99;61.85;98013.53;6201881;22;102763;-85
2021/08/30 05:37:20;;;;;;;;;7.67;7.67;;;;;17.99;61.96;98012.72;6206844;22;102177;-84
2021/08/30 05:39:47;;;;;;;;;7.00;6.00;;;;;17.98;62.05;98008.31;6201651;22;102401;-85
2021/08/30 05:42:14;;;;;;;;;6.00;6.00;;;;;17.97;62.12;97999.28;6201447;22;103744;-85
2021/08/30 05:44:41;;;;;;;;;7.00;7.00;;;;;17.96;62.71;97988.63;6198792;22;102464;-84
2021/08/30 05:47:08;;;;;;;;;7.00;5.33;;;;;17.95;62.17;97998.75;6201531;22;102595;-85
2021/08/30 05:49:35;;;;;;;;;8.00;7.00;;;;;17.98;63.11;97991.91;6190972;22;102540;-85
2021/08/30 05:52:03;;;;;;;;;6.33;6.33;;;;;17.94;62.72;97982.56;6203971;22;104156;-84
2021/08/30 05:54:31;;;;;;;;;8.00;7.00;;;;;17.98;62.29;97983.69;6196216;22;102671;-84
2021/08/30 05:56:58;;;;;;;;;5.33;5.33;;;;;17.99;61.87;97991.66;6204272;22;102554;-84
2021/08/30 05:59:25;;;;;;;;;5.67;5.67;;;;;17.98;61.89;97994.63;6194535;22;102462;-84
2021/08/30 06:01:52;;;;;;;;;8.00;7.33;;;;;17.99;62.56;97996.28;6194290;22;104008;-84
2021/08/30 06:04:20;;;;;;;;;7.00;6.00;;;;;17.96;62.54;97985.88;6202834;22;104675;-84
2021/08/30 06:06:47;;;;;;;;;7.00;6.00;;;;;17.99;62.39;97996.28;6200166;22;102565;-84
2021/08/30 06:09:14;;;;;;;;;8.67;7.00;;;;;17.96;62.57;97981.25;6201727;22;102717;-84
2021/08/30 06:11:44;;;;;;;;;7.67;7.00;;;;;17.97;62.48;98003.94;6195772;22;104034;-83
2021/08/30 06:14:11;;;;;;;;;7.67;7.67;;;;;17.97;62.91;97993.81;6197547;22;102281;-84
2021/08/30 06:16:38;;;;;;;;;7.33;6.33;;;;;17.99;62.56;97990.81;6205606;22;102419;-85
2021/08/30 06:19:05;;;;;;;;;6.00;5.00;;;;;17.99;63.46;97985.34;6196818;22;102350;-85
2021/08/30 06:21:32;;;;;;;;;8.00;6.33;;;;;17.97;63.35;97987.50;6198617;22;104018;-84
2021/08/30 06:24:00;;;;;;;;;7.00;6.00;;;;;18.00;63.30;97987.00;6193577;22;102524;-83
2021/08/30 06:26:27;;;;;;;;;8.00;7.00;;;;;17.99;62.48;97982.63;6204322;22;102232;-83
2021/08/30 06:28:57;;;;;;;;;8.00;7.00;;;;;17.99;61.81;97974.41;6204227;22;102415;-84
2021/08/30 06:31:24;;;;;;;;;8.33;7.00;;;;;17.99;62.54;97979.88;6191854;22;104005;-84
2021/08/30 06:33:51;;;;;;;;;6.33;6.33;;;;;17.96;63.16;97978.50;6205768;22;102152;-84
2021/08/30 06:36:18;;;;;;;;;6.00;6.00;;;;;17.99;62.54;97986.19;6202375;22;102168;-84
2021/08/30 06:38:46;;;;;;;;;6.00;5.00;;;;;18.00;62.95;97976.06;6204715;22;102155;-84
2021/08/30 06:41:13;;;;;;;;;6.00;6.00;;;;;18.00;63.02;97978.81;6192536;22;104043;-84
2021/08/30 06:43:40;;;;;;;;;5.33;5.00;;;;;17.98;62.90;97978.22;6190184;22;102121;-84
2021/08/30 06:46:07;;;;;;;;;6.67;6.33;;;;;17.98;63.40;97979.06;6195975;22;102597;-84
2021/08/30 06:48:34;;;;;;;;;8.00;7.00;;;;;17.99;63.30;97974.41;6194958;22;102462;-84
2021/08/30 06:51:02;;;;;;;;;7.33;7.00;;;;;17.99;63.44;97980.72;6184041;22;103981;-84
2021/08/30 06:53:29;;;;;;;;;7.00;7.00;;;;;18.00;62.55;97978.81;6198430;22;102230;-84
2021/08/30 06:55:56;;;;;;;;;7.00;6.00;;;;;18.00;62.92;97973.31;6190229;22;102194;-84
2021/08/30 06:58:23;;;;;;;;;8.00;7.67;;;;;18.01;62.63;97983.19;6196283;22;102276;-84
2021/08/30 07:00:50;;;;;;;;;7.00;5.33;;;;;18.01;62.39;97978.50;6179318;22;103980;-84
2021/08/30 07:03:18;;;;;;;;;6.00;5.00;;;;;18.00;62.84;97987.00;6192599;22;102223;-84
2021/08/30 07:05:45;;;;;;;;;8.00;7.33;;;;;17.99;62.20;97980.72;6153269;22;102326;-83
2021/08/30 07:08:12;;;;;;;;;7.00;7.00;;;;;17.99;62.35;97979.88;6209990;22;102141;-84
2021/08/30 07:10:40;;;;;;;;;8.00;7.67;;;;;18.00;62.17;97989.75;6202206;22;110457;-84
2021/08/30 07:13:07;;;;;;;;;7.33;7.33;;;;;17.98;62.33;97990.00;6197100;22;102345;-84
2021/08/30 07:15:34;;;;;;;;;7.00;7.00;;;;;17.98;63.15;97980.97;6198718;22;102240;-84
2021/08/30 07:18:01;;;;;;;;;6.67;6.33;;;;;17.97;62.51;97984.78;6152365;22;102176;-84
2021/08/30 07:20:29;;;;;;;;;6.00;6.00;;;;;18.00;63.53;97981.53;6198886;22;104022;-84
2021/08/30 07:22:56;;;;;;;;;7.00;6.00;;;;;18.01;63.37;97983.19;6203102;22;102383;-84
2021/08/30 07:25:23;;;;;;;;;7.33;6.00;;;;;18.01;63.42;97986.72;6201692;22;102180;-83
2021/08/30 07:27:50;;;;;;;;;6.00;6.00;;;;;18.02;62.84;97984.81;6198855;22;102419;-84
2021/08/30 07:30:18;;;;;;;;;7.00;7.00;;;;;18.02;62.97;97993.03;6206782;22;104008;-84
2021/08/30 07:32:45;;;;;;;;;6.00;6.00;;;;;18.02;63.07;97988.38;6200643;22;102270;-84
2021/08/30 07:35:13;;;;;;;;;6.00;6.00;;;;;18.01;62.44;97983.19;6195216;22;102529;-84
2021/08/30 07:37:41;;;;;;;;;5.00;5.00;;;;;18.02;62.73;97990.28;6205718;22;103177;-84
2021/08/30 07:40:09;;;;;;;;;7.33;7.00;;;;;18.02;63.08;97995.75;6196374;22;104380;-84
2021/08/30 07:42:36;;;;;;;;;5.67;5.67;;;;;18.03;62.91;97997.41;6186588;22;104453;-84
2021/08/30 07:45:03;;;;;;;;;8.33;7.00;;;;;18.02;62.97;97995.75;6175285;22;102673;-84
2021/08/30 07:47:31;;;;;;;;;6.67;6.00;;;;;18.00;62.96;97992.47;6199688;22;102673;-83
2021/08/30 07:49:58;;;;;;;;;8.33;8.00;;;;;18.02;62.61;97990.28;6201140;22;103979;-84
2021/08/30 07:52:25;;;;;;;;;7.67;7.00;;;;;18.03;63.13;97994.69;6200831;22;102296;-83
2021/08/30 07:54:52;;;;;;;;;7.33;5.33;;;;;18.04;62.50;97990.84;6192200;22;104336;-83
2021/08/30 07:57:19;;;;;;;;;6.67;6.00;;;;;18.04;62.91;97993.59;6185472;22;102562;-83
2021/08/30 07:59:46;;;;;;;;;9.00;6.67;;;;;18.04;62.52;97999.06;6198458;22;104352;-84
2021/08/30 08:02:13;;;;;;;;;6.00;6.00;;;;;18.04;62.45;98001.81;6192542;22;102113;-84
2021/08/30 08:04:41;;;;;;;;;6.00;6.00;;;;;18.04;62.94;97996.34;6178227;22;102479;-84
2021/08/30 08:07:08;;;;;;;;;6.00;6.00;;;;;18.03;62.67;98000.97;6188330;22;102378;-83
2021/08/30 08:09:35;;;;;;;;;6.00;6.00;;;;;18.02;63.53;98002.06;6195242;22;104032;-84
2021/08/30 08:12:02;;;;;;;;;5.00;5.00;;;;;18.05;62.93;98000.72;6193549;22;102641;-84
2021/08/30 08:14:30;;;;;;;;;5.33;5.33;;;;;18.06;62.95;98010.56;6190105;22;102209;-84
2021/08/30 08:16:57;;;;;;;;;6.33;6.00;;;;;18.04;62.83;97994.41;6193022;22;102566;-83
2021/08/30 08:19:24;;;;;;;;;7.00;6.00;;;;;18.05;62.70;97998.81;6187059;22;104132;-83
2021/08/30 08:21:52;;;;;;;;;5.33;4.00;;;;;18.07;62.74;98004.81;6197229;22;102296;-84
2021/08/30 08:24:19;;;;;;;;;7.00;5.67;;;;;18.08;62.21;98011.13;6189782;22;102526;-84
2021/08/30 08:26:46;;;;;;;;;6.00;5.00;;;;;18.10;63.00;98012.50;6198762;22;102275;-84
2021/08/30 08:29:14;;;;;;;;;7.00;6.00;;;;;18.08;63.31;98013.88;6182063;22;104216;-84
2021/08/30 08:31:41;;;;;;;;;5.00;5.00;;;;;18.07;63.20;98004.00;6171677;22;102061;-84
2021/08/30 08:34:08;;;;;;;;;7.00;7.00;;;;;18.06;62.39;98014.13;6189268;22;102525;-84
2021/08/30 08:36:38;;;;;;;;;6.00;6.00;;;;;18.08;62.80;98016.59;6154821;22;102712;-84
2021/08/30 08:39:09;;;;;;;;;6.00;5.67;;;;;18.09;63.28;98012.78;6182473;22;104024;-84
2021/08/30 08:41:37;;;;;;;;;8.33;7.67;;;;;18.08;63.18;98009.22;6184808;22;102627;-84
2021/08/30 08:44:06;;;;;;;;;6.00;5.00;;;;;18.09;63.55;98012.78;6189476;22;102288;-84
2021/08/30 08:46:36;;;;;;;;;5.33;5.00;;;;;18.10;62.46;98017.19;6181426;22;104489;-83
2021/08/30 08:49:03;;;;;;;;;7.33;6.33;;;;;18.10;63.39;98019.91;6191121;22;104050;-84
2021/08/30 08:51:30;;;;;;;;;6.67;6.67;;;;;18.11;62.66;98021.53;6195866;22;102205;-84
2021/08/30 08:53:58;;;;;;;;;5.67;5.00;;;;;18.13;63.45;98022.94;6191576;22;102315;-84
2021/08/30 08:56:26;;;;;;;;;5.67;5.00;;;;;18.15;62.97;98014.44;6180794;22;102238;-83
2021/08/30 08:58:53;;;;;;;;;4.67;4.33;;;;;18.15;62.32;98022.66;6191247;22;103689;-83
2021/08/30 09:01:24;;;;;;;;;5.00;5.00;;;;;18.16;62.77;98018.84;6194021;22;101885;-84
2021/08/30 09:03:55;;;;;;;;;8.00;7.00;;;;;18.16;62.74;98027.03;6187455;22;102099;-84
2021/08/30 09:06:34;;;;;;;;;5.33;5.33;;;;;18.16;62.91;98013.38;6193205;22;102359;-84
2021/08/30 09:09:11;;;;;;;;;4.67;4.67;;;;;18.15;62.54;98014.44;6091260;22;108926;-84
2021/08/30 09:11:43;;;;;;;;;6.00;5.00;;;;;18.16;62.18;98018.84;6195903;22;102387;-84
2021/08/30 09:14:28;;;;;;;;;6.33;6.00;;;;;18.16;62.84;98014.19;6201122;22;102558;-84
2021/08/30 09:17:07;;;;;;;;;6.00;6.00;;;;;18.17;63.07;98015.03;6168145;22;102322;-83
2021/08/30 09:19:35;;;;;;;;;7.00;6.67;;;;;18.19;63.25;98023.81;6172294;22;104073;-84
2021/08/30 09:22:03;;;;;;;;;6.00;6.00;;;;;18.17;63.30;98017.75;6201431;22;102134;-84
2021/08/30 09:24:31;;;;;;;;;5.33;5.33;;;;;18.17;62.76;98029.53;6196685;22;102109;-84
2021/08/30 09:27:08;;;;;;;;;3.00;2.67;;;;;18.19;62.71;98016.38;6171905;22;102513;-83
2021/08/30 09:29:39;;;;;;;;;6.00;5.00;;;;;18.20;62.44;98018.03;6191789;22;103993;-84
2021/08/30 09:32:19;;;;;;;;;5.67;5.67;;;;;18.20;62.77;98011.75;6198942;22;102240;-83
2021/08/30 09:34:48;;;;;;;;;5.33;5.00;;;;;18.21;62.36;98018.88;6190791;22;102316;-83
2021/08/30 09:37:19;;;;;;;;;5.00;5.00;;;;;18.21;62.98;98006.03;6204029;22;102205;-84
2021/08/30 09:39:48;;;;;;;;;6.33;5.00;;;;;18.21;63.05;98010.66;6175042;22;103977;-84
2021/08/30 09:42:15;;;;;;;;;6.33;6.00;;;;;18.21;62.49;98014.22;6186364;22;102043;-83
2021/08/30 09:44:43;;;;;;;;;4.67;4.67;;;;;18.21;62.14;98016.97;6172398;22;102721;-84
2021/08/30 09:47:11;;;;;;;;;5.00;5.00;;;;;18.22;62.49;98012.31;6181146;22;102251;-83
2021/08/30 09:49:38;;;;;;;;;4.67;4.67;;;;;18.21;62.83;98024.34;6184154;22;104063;-83
2021/08/30 09:52:06;;;;;;;;;5.67;5.00;;;;;18.22;62.40;98028.75;6185438;22;102198;-84
2021/08/30 09:54:33;;;;;;;;;5.67;4.67;;;;;18.24;62.39;98024.63;6154311;22;102226;-83
2021/08/30 09:57:01;;;;;;;;;4.33;4.33;;;;;18.23;62.35;98023.00;6184315;22;102156;-83
2021/08/30 09:59:28;;;;;;;;;5.00;4.00;;;;;18.25;62.22;98023.56;6170523;22;104034;-83
2021/08/30 10:01:56;;;;;;;;;5.00;4.33;;;;;18.25;63.33;98028.19;6199792;22;101764;-84
2021/08/30 10:04:24;;;;;;;;;5.00;5.00;;;;;18.25;62.29;98026.28;6195832;22;105590;-83
2021/08/30 10:06:51;;;;;;;;;5.00;4.00;;;;;18.25;63.11;98022.72;6166060;22;102167;-84
2021/08/30 10:09:19;;;;;;;;;6.00;6.00;;;;;18.25;62.65;98022.72;6187895;22;104103;-84
2021/08/30 10:11:47;;;;;;;;;5.00;5.00;;;;;18.26;62.32;98024.38;6194798;22;102215;-83
2021/08/30 10:14:19;;;;;;;;;5.33;4.00;;;;;18.25;62.69;98022.72;6201428;22;102563;-84
2021/08/30 10:16:46;;;;;;;;;4.00;4.00;;;;;18.24;62.50;98027.38;6192230;22;102084;-84
2021/08/30 10:19:23;;;;;;;;;5.00;5.00;;;;;18.26;62.41;98030.69;6171835;22;103436;-83
2021/08/30 10:21:50;;;;;;;;;6.00;5.00;;;;;18.25;62.92;98033.69;6161728;22;102724;-83
2021/08/30 10:24:18;;;;;;;;;4.67;4.67;;;;;18.26;62.40;98029.84;6189018;22;102568;-83
2021/08/30 10:26:46;;;;;;;;;3.33;3.33;;;;;18.28;62.91;98033.16;6190349;22;102255;-84
2021/08/30 10:29:14;;;;;;;;;5.00;5.00;;;;;18.28;62.58;98033.16;6189880;22;104131;-83
2021/08/30 10:31:51;;;;;;;;;5.00;5.00;;;;;18.29;62.59;98032.06;6180888;22;102566;-84
2021/08/30 10:34:39;;;;;;;;;6.00;5.67;;;;;18.28;62.74;98023.00;6174651;22;102146;-83
2021/08/30 10:37:16;;;;;;;;;5.00;5.00;;;;;18.28;62.10;98028.50;6087273;22;102651;-83
2021/08/30 10:39:46;;;;;;;;;5.00;4.00;;;;;18.29;62.01;98029.31;6180542;22;104136;-83
2021/08/30 10:42:13;;;;;;;;;5.00;5.00;;;;;18.29;62.32;98035.63;6194547;22;102443;-83
2021/08/30 10:44:57;;;;;;;;;4.33;4.33;;;;;18.29;62.52;98030.16;6192181;22;102612;-84
2021/08/30 10:47:25;;;;;;;;;5.00;5.00;;;;;18.29;62.33;98040.25;6199190;22;102694;-84
2021/08/30 10:49:53;;;;;;;;;5.00;4.00;;;;;18.29;62.61;98034.78;6191880;22;104006;-84
2021/08/30 10:52:20;;;;;;;;;4.00;4.00;;;;;18.29;62.24;98051.22;6169883;22;102408;-84
2021/08/30 10:54:54;;;;;;;;;6.00;6.00;;;;;18.29;62.48;98043.00;6200992;22;102863;-83
2021/08/30 10:57:38;;;;;;;;;6.00;5.00;;;;;18.32;62.85;98055.34;6202606;22;102526;-84
2021/08/30 11:00:07;;;;;;;;;5.67;5.00;;;;;18.32;62.30;98045.22;6173487;22;108687;-83
2021/08/30 11:02:37;;;;;;;;;5.00;5.00;;;;;18.32;62.38;98038.94;6152769;22;102216;-83
2021/08/30 11:05:06;;;;;;;;;5.00;4.00;;;;;18.31;62.38;98043.56;6198106;22;101926;-83
2021/08/30 11:07:35;;;;;;;;;4.00;4.00;;;;;18.33;62.67;98046.06;6175099;22;102198;-82
2021/08/30 11:10:03;;;;;;;;;7.67;5.00;;;;;18.33;62.46;98048.78;6199704;22;104026;-82
2021/08/30 11:12:30;;;;;;;;;4.67;4.67;;;;;18.32;62.25;98047.97;6202760;22;102240;-83
2021/08/30 11:14:58;;;;;;;;;6.00;5.00;;;;;18.33;62.88;98052.34;6194590;22;102157;-83
2021/08/30 11:17:29;;;;;;;;;5.00;5.00;;;;;18.33;62.58;98057.81;6182085;22;102162;-83
2021/08/30 11:19:57;;;;;;;;;5.00;5.00;;;;;18.33;62.97;98046.84;6200785;22;104272;-83
2021/08/30 11:22:24;;;;;;;;;4.33;4.33;;;;;18.29;62.61;98041.09;6202784;22;102578;-83
2021/08/30 11:24:51;;;;;;;;;4.67;4.00;;;;;18.35;62.84;98049.34;6181518;22;102241;-83
2021/08/30 11:27:21;;;;;;;;;4.00;4.00;;;;;18.35;62.44;98047.44;6192448;22;102648;-83
2021/08/30 11:29:54;;;;;;;;;4.00;4.00;;;;;18.37;62.74;98047.97;6168272;22;103817;-84
2021/08/30 11:32:23;;;;;;;;;4.67;4.00;;;;;18.37;62.76;98055.38;6188950;22;101926;-83
2021/08/30 11:34:50;;;;;;;;;5.33;5.33;;;;;18.39;62.79;98053.19;6200196;22;102434;-84
2021/08/30 11:37:25;;;;;;;;;4.00;4.00;;;;;18.39;62.22;98062.22;6194608;22;102652;-83